createdAt,value
2023-05-17T00:01:16.164Z,12.28
2023-05-17T00:04:18.945Z,12.27
2023-05-17T00:07:21.816Z,12.32
2023-05-17T00:10:24.637Z,12.36
2023-05-17T00:13:27.394Z,12.27
2023-05-17T00:16:30.165Z,12.34
2023-05-17T00:19:32.975Z,12.37
2023-05-17T00:22:35.787Z,12.55
2023-05-17T00:25:38.573Z,12.52
2023-05-17T00:28:45.075Z,12.55
2023-05-17T00:31:50.129Z,12.50
2023-05-17T00:34:53.169Z,12.56
2023-05-17T00:37:58.587Z,12.46
2023-05-17T00:41:01.415Z,12.40
2023-05-17T00:44:04.431Z,12.49
2023-05-17T00:47:07.434Z,12.55
2023-05-17T00:50:12.213Z,12.58
2023-05-17T00:53:16.824Z,12.52
2023-05-17T00:56:19.693Z,12.56
2023-05-17T00:59:24.550Z,12.61
2023-05-17T01:02:27.464Z,12.60
2023-05-17T01:05:32.455Z,12.62
2023-05-17T01:08:35.310Z,12.61
2023-05-17T01:11:56.846Z,12.67
2023-05-17T01:15:28.164Z,12.67
2023-05-17T01:18:41.818Z,12.70
2023-05-17T01:22:40.544Z,12.68
2023-05-17T01:25:55.336Z,12.73
2023-05-17T01:29:00.261Z,12.81
2023-05-17T01:32:03.629Z,12.77
2023-05-17T01:35:06.881Z,12.84
2023-05-17T01:38:11.244Z,12.78
2023-05-17T01:41:19.897Z,12.82
2023-05-17T01:44:22.654Z,12.82
2023-05-17T01:47:35.153Z,12.88
2023-05-17T01:50:39.079Z,12.94
2023-05-17T01:53:50.206Z,12.93
2023-05-17T01:56:58.856Z,12.89
2023-05-17T02:00:07.430Z,12.93
2023-05-17T02:03:21.023Z,12.98
2023-05-17T02:06:28.420Z,12.99
2023-05-17T02:09:31.274Z,12.88
2023-05-17T02:12:34.365Z,12.86
2023-05-17T02:15:37.317Z,12.82
2023-05-17T02:18:41.954Z,12.64
2023-05-17T02:21:44.972Z,12.80
2023-05-17T02:24:48.616Z,12.68
2023-05-17T02:27:51.842Z,12.66
2023-05-17T02:30:55.116Z,12.62
2023-05-17T02:33:57.948Z,12.59
2023-05-17T02:37:00.991Z,12.49
2023-05-17T02:40:09.070Z,12.48
2023-05-17T02:43:12.113Z,12.37
2023-05-17T02:46:15.156Z,12.42
2023-05-17T02:49:22.319Z,12.46
2023-05-17T02:52:25.862Z,12.46
2023-05-17T02:55:28.890Z,12.48
2023-05-17T02:58:32.090Z,12.40
2023-05-17T03:01:35.044Z,12.47
2023-05-17T03:04:39.060Z,12.25
2023-05-17T03:07:41.938Z,12.23
2023-05-17T03:10:44.751Z,12.23
2023-05-17T03:13:51.875Z,12.19
2023-05-17T03:17:00.481Z,12.15
2023-05-17T03:20:04.851Z,11.97
2023-05-17T03:23:07.863Z,12.06
2023-05-17T03:26:17.369Z,12.02
2023-05-17T03:29:24.767Z,12.07
2023-05-17T03:32:27.459Z,12.09
2023-05-17T03:35:30.317Z,12.06
2023-05-17T03:38:35.213Z,12.03
2023-05-17T03:41:38.190Z,11.95
2023-05-17T03:44:41.674Z,11.93
2023-05-17T03:47:44.911Z,12.01
2023-05-17T03:50:48.331Z,11.97
2023-05-17T03:53:58.739Z,11.93
2023-05-17T03:57:02.181Z,11.99
2023-05-17T04:00:21.979Z,12.11
2023-05-17T04:03:24.814Z,12.14
2023-05-17T04:06:27.686Z,11.94
2023-05-17T04:09:32.502Z,12.14
2023-05-17T04:12:35.942Z,12.12
2023-05-17T04:15:38.657Z,12.05
2023-05-17T04:18:43.693Z,12.19
2023-05-17T04:21:47.398Z,12.20
2023-05-17T04:24:50.680Z,12.09
2023-05-17T04:27:56.178Z,12.18
2023-05-17T04:30:59.376Z,12.09
2023-05-17T04:34:03.049Z,12.18
2023-05-17T04:37:06.552Z,12.14
2023-05-17T04:40:12.073Z,12.16
2023-05-17T04:43:15.289Z,12.06
2023-05-17T04:46:18.324Z,11.97
2023-05-17T04:49:21.163Z,12.00
2023-05-17T04:52:24.132Z,11.93
2023-05-17T04:55:27.224Z,12.03
2023-05-17T04:58:30.767Z,12.10
2023-05-17T05:01:35.941Z,11.98
2023-05-17T05:04:38.988Z,12.12
2023-05-17T05:07:42.293Z,11.87
2023-05-17T05:10:46.912Z,11.99
2023-05-17T05:13:52.538Z,12.07
2023-05-17T05:16:56.164Z,11.95
2023-05-17T05:19:59.621Z,11.93
2023-05-17T05:23:06.350Z,11.90
2023-05-17T05:26:10.230Z,11.77
2023-05-17T05:29:13.220Z,11.84
2023-05-17T05:32:17.698Z,11.88
2023-05-17T05:35:29.784Z,11.82
2023-05-17T05:38:33.891Z,11.95
2023-05-17T05:41:37.274Z,12.04
2023-05-17T05:44:40.099Z,12.12
2023-05-17T05:47:45.128Z,12.07
2023-05-17T05:50:48.251Z,12.03
2023-05-17T05:53:51.617Z,12.06
2023-05-17T05:56:55.772Z,11.93
2023-05-17T05:59:58.735Z,11.84
2023-05-17T06:03:01.870Z,11.91
2023-05-17T06:06:05.277Z,11.81
2023-05-17T06:09:08.129Z,11.94
2023-05-17T06:12:11.103Z,11.79
2023-05-17T06:15:14.172Z,11.75
2023-05-17T06:18:17.078Z,11.70
2023-05-17T06:21:20.090Z,11.82
2023-05-17T06:24:22.885Z,11.64
2023-05-17T06:27:28.085Z,11.81
2023-05-17T06:30:31.565Z,11.93
2023-05-17T06:33:34.815Z,11.89
2023-05-17T06:36:38.599Z,11.76
2023-05-17T06:39:42.598Z,11.66
2023-05-17T06:42:47.949Z,11.62
2023-05-17T06:45:51.288Z,11.49
2023-05-17T06:48:54.396Z,11.45
2023-05-17T06:52:03.650Z,11.58
2023-05-17T06:55:10.884Z,11.62
2023-05-17T06:58:13.849Z,11.54
2023-05-17T07:01:17.642Z,11.61
2023-05-17T07:04:21.294Z,11.47
2023-05-17T07:07:24.213Z,11.78
2023-05-17T07:10:27.279Z,11.91
2023-05-17T07:13:32.315Z,11.88
2023-05-17T07:16:35.054Z,11.89
2023-05-17T07:19:37.855Z,11.63
2023-05-17T07:22:40.897Z,11.83
2023-05-17T07:25:43.625Z,11.68
2023-05-17T07:28:46.665Z,11.59
2023-05-17T07:31:49.688Z,11.56
2023-05-17T07:34:52.592Z,11.52
2023-05-17T07:37:55.679Z,11.58
2023-05-17T07:40:58.521Z,11.58
2023-05-17T07:44:01.261Z,11.49
2023-05-17T07:47:04.198Z,11.58
2023-05-17T07:50:07.744Z,11.45
2023-05-17T07:53:10.897Z,11.44
2023-05-17T07:56:13.698Z,11.38
2023-05-17T07:59:16.581Z,11.24
2023-05-17T08:02:19.502Z,11.19
2023-05-17T08:05:22.460Z,11.19
2023-05-17T08:08:25.538Z,11.07
2023-05-17T08:11:28.989Z,11.29
2023-05-17T08:14:33.986Z,11.15
2023-05-17T08:17:36.964Z,11.25
2023-05-17T08:20:39.938Z,11.35
2023-05-17T08:23:42.717Z,11.35
2023-05-17T08:26:45.492Z,11.19
2023-05-17T08:29:48.315Z,11.31
2023-05-17T08:32:51.482Z,11.23
2023-05-17T08:35:55.699Z,11.45
2023-05-17T08:38:58.565Z,11.46
2023-05-17T08:42:02.864Z,11.55
2023-05-17T08:45:06.978Z,11.32
2023-05-17T08:48:10.258Z,11.38
2023-05-17T08:51:13.381Z,11.26
2023-05-17T08:54:16.106Z,11.47
2023-05-17T08:57:19.264Z,11.30
2023-05-17T09:00:22.684Z,11.41
2023-05-17T09:03:26.738Z,11.39
2023-05-17T09:06:30.803Z,11.22
2023-05-17T09:09:34.464Z,11.40
2023-05-17T09:12:37.533Z,11.33
2023-05-17T09:15:43.409Z,11.44
2023-05-17T09:18:54.427Z,11.56
2023-05-17T09:22:00.710Z,11.47
2023-05-17T09:25:05.014Z,11.62
2023-05-17T09:28:12.257Z,11.54
2023-05-17T09:31:17.528Z,11.54
2023-05-17T09:34:24.152Z,11.51
2023-05-17T09:37:27.155Z,11.55
2023-05-17T09:40:30.026Z,11.42
2023-05-17T09:43:32.991Z,11.40
2023-05-17T09:46:36.834Z,11.63
2023-05-17T09:49:39.675Z,11.61
2023-05-17T09:52:42.456Z,11.43
2023-05-17T09:55:49.220Z,11.30
2023-05-17T09:58:52.065Z,11.53
2023-05-17T10:01:55.455Z,11.53
2023-05-17T10:04:58.945Z,11.58
2023-05-17T10:08:02.281Z,11.38
2023-05-17T10:11:12.073Z,11.37
2023-05-17T10:14:28.290Z,11.29
2023-05-17T10:17:32.013Z,11.53
2023-05-17T10:20:35.053Z,11.54
2023-05-17T10:23:39.413Z,11.41
2023-05-17T10:26:42.925Z,11.36
2023-05-17T10:29:47.642Z,11.00
2023-05-17T10:32:53.171Z,11.15
2023-05-17T10:35:56.515Z,11.14
2023-05-17T10:39:00.205Z,10.94
2023-05-17T10:42:14.185Z,11.02
2023-05-17T10:45:17.602Z,10.94
2023-05-17T10:48:20.605Z,10.76
2023-05-17T10:51:25.189Z,10.62
2023-05-17T10:54:39.632Z,10.34
2023-05-17T10:57:51.208Z,10.28
2023-05-17T11:00:55.854Z,10.23
2023-05-17T11:03:59.389Z,10.20
2023-05-17T11:07:17.703Z,10.12
2023-05-17T11:10:20.788Z,10.00
2023-05-17T11:13:26.562Z,10.12
2023-05-17T11:16:36.691Z,10.19
2023-05-17T11:19:39.940Z,10.13
2023-05-17T11:22:43.644Z,10.28
2023-05-17T11:25:48.481Z,10.32
2023-05-17T11:29:03.310Z,10.30
2023-05-17T11:32:08.346Z,10.43
2023-05-17T11:35:13.000Z,10.36
2023-05-17T11:38:24.813Z,10.17
2023-05-17T11:41:27.957Z,10.06
2023-05-17T11:44:32.042Z,10.15
2023-05-17T11:47:39.567Z,9.95
2023-05-17T11:50:43.507Z,10.00
2023-05-17T11:53:47.912Z,9.90
2023-05-17T11:56:51.047Z,9.83
2023-05-17T12:00:00.220Z,9.62
2023-05-17T12:03:37.777Z,9.80
2023-05-17T12:06:40.812Z,9.83
2023-05-17T12:09:45.699Z,9.77
2023-05-17T12:12:48.953Z,9.86
2023-05-17T12:16:00.574Z,9.91
2023-05-17T12:19:03.905Z,10.01
2023-05-17T12:22:14.315Z,10.19
2023-05-17T12:25:20.966Z,10.15
2023-05-17T12:28:25.068Z,10.32
2023-05-17T12:31:38.877Z,10.13
2023-05-17T12:34:42.314Z,10.16
2023-05-17T12:37:45.387Z,10.01
2023-05-17T12:40:50.826Z,10.07
2023-05-17T12:44:06.260Z,10.00
2023-05-17T12:47:16.228Z,9.97
2023-05-17T12:50:39.698Z,9.84
2023-05-17T12:53:44.388Z,10.11
2023-05-17T12:56:47.438Z,10.06
2023-05-17T12:59:53.267Z,9.96
2023-05-17T13:02:58.951Z,9.94
2023-05-17T13:06:04.783Z,9.96
2023-05-17T13:09:07.942Z,10.06
2023-05-17T13:12:11.251Z,9.84
2023-05-17T13:15:15.603Z,10.04
2023-05-17T13:18:19.800Z,9.99
2023-05-17T13:21:24.804Z,9.94
2023-05-17T13:24:30.755Z,9.82
2023-05-17T13:27:33.946Z,10.05
2023-05-17T13:30:38.111Z,10.01
2023-05-17T13:33:42.435Z,10.02
2023-05-17T13:36:45.458Z,10.31
2023-05-17T13:39:48.734Z,10.13
2023-05-17T13:42:51.728Z,10.18
2023-05-17T13:45:59.246Z,10.16
2023-05-17T13:49:05.009Z,10.20
2023-05-17T13:52:13.650Z,10.30
2023-05-17T13:55:16.500Z,10.14
2023-05-17T13:58:22.185Z,10.13
2023-05-17T14:01:25.471Z,10.08
2023-05-17T14:04:28.502Z,10.08
2023-05-17T14:07:31.574Z,10.20
2023-05-17T14:10:34.641Z,10.13
2023-05-17T14:13:37.837Z,10.29
2023-05-17T14:16:41.698Z,10.21
2023-05-17T14:19:44.633Z,10.36
2023-05-17T14:22:49.050Z,10.18
2023-05-17T14:25:52.037Z,10.31
2023-05-17T14:28:55.304Z,10.19
2023-05-17T14:31:58.496Z,10.07
2023-05-17T14:35:01.537Z,10.39
2023-05-17T14:38:04.746Z,10.37
2023-05-17T14:41:08.119Z,10.47
2023-05-17T14:44:11.277Z,10.23
2023-05-17T14:47:14.531Z,10.38
2023-05-17T14:50:17.717Z,10.75
2023-05-17T14:53:20.715Z,10.57
2023-05-17T14:56:24.287Z,10.19
2023-05-17T14:59:27.843Z,10.56
2023-05-17T15:02:30.815Z,10.70
2023-05-17T15:05:35.980Z,10.36
2023-05-17T15:08:40.033Z,10.47
2023-05-17T15:11:42.937Z,10.60
2023-05-17T15:14:47.204Z,10.49
2023-05-17T15:17:53.527Z,10.51
2023-05-17T15:20:56.576Z,10.50
2023-05-17T15:23:59.470Z,10.37
2023-05-17T15:27:02.651Z,10.48
2023-05-17T15:30:06.297Z,10.66
2023-05-17T15:33:09.825Z,10.58
2023-05-17T15:36:14.247Z,10.37
2023-05-17T15:39:17.115Z,10.31
2023-05-17T15:42:20.038Z,10.35
2023-05-17T15:45:23.084Z,10.19
2023-05-17T15:48:29.929Z,10.17
2023-05-17T15:51:32.944Z,10.15
2023-05-17T15:54:36.195Z,10.19
2023-05-17T15:57:39.092Z,10.01
2023-05-17T16:00:42.244Z,9.78
2023-05-17T16:03:45.527Z,9.51
2023-05-17T16:06:48.470Z,9.61
2023-05-17T16:09:51.341Z,9.65
2023-05-17T16:12:54.340Z,9.44
2023-05-17T16:15:58.586Z,9.57
2023-05-17T16:19:01.953Z,9.58
2023-05-17T16:22:05.173Z,9.86
2023-05-17T16:25:08.117Z,9.97
2023-05-17T16:28:10.885Z,10.03
2023-05-17T16:31:13.872Z,9.87
2023-05-17T16:34:17.247Z,9.86
2023-05-17T16:37:20.219Z,9.85
2023-05-17T16:40:23.410Z,9.63
2023-05-17T16:43:26.802Z,9.66
2023-05-17T16:46:29.821Z,9.48
2023-05-17T16:49:32.840Z,9.49
2023-05-17T16:52:39.065Z,9.44
2023-05-17T16:55:42.752Z,9.43
2023-05-17T16:58:46.107Z,9.32
2023-05-17T17:01:49.145Z,9.23
2023-05-17T17:04:52.624Z,9.30
2023-05-17T17:07:55.586Z,9.24
2023-05-17T17:10:58.437Z,9.21
2023-05-17T17:14:01.210Z,9.26
2023-05-17T17:17:04.317Z,9.19
2023-05-17T17:20:09.493Z,9.39
2023-05-17T17:23:12.961Z,9.41
2023-05-17T17:26:16.376Z,9.20
2023-05-17T17:29:19.263Z,9.07
2023-05-17T17:32:22.467Z,9.23
2023-05-17T17:35:25.344Z,9.04
2023-05-17T17:38:28.183Z,9.24
2023-05-17T17:41:33.854Z,9.01
2023-05-17T17:44:37.059Z,9.13
2023-05-17T17:47:42.547Z,9.07
2023-05-17T17:50:45.795Z,8.90
2023-05-17T17:53:49.529Z,9.00
2023-05-17T17:56:52.960Z,8.98
2023-05-17T17:59:57.115Z,8.95
2023-05-17T18:03:00.388Z,8.79
2023-05-17T18:06:05.216Z,8.90
2023-05-17T18:09:08.973Z,8.64
2023-05-17T18:12:12.169Z,8.73
2023-05-17T18:15:15.678Z,8.77
2023-05-17T18:18:18.746Z,8.65
2023-05-17T18:21:22.068Z,8.86
2023-05-17T18:24:25.010Z,8.86
2023-05-17T18:27:27.901Z,8.72
2023-05-17T18:30:31.469Z,8.73
2023-05-17T18:33:35.384Z,8.77
2023-05-17T18:36:38.534Z,8.80
2023-05-17T18:39:44.154Z,8.80
2023-05-17T18:42:47.508Z,8.84
2023-05-17T18:45:51.547Z,8.77
2023-05-17T18:48:54.559Z,8.74
2023-05-17T18:51:57.560Z,8.76
2023-05-17T18:55:00.544Z,8.75
2023-05-17T18:58:03.725Z,8.85
2023-05-17T19:01:06.941Z,8.79
2023-05-17T19:04:10.225Z,8.74
2023-05-17T19:07:13.139Z,8.80
2023-05-17T19:10:16.206Z,8.71
2023-05-17T19:13:19.331Z,8.71
2023-05-17T19:16:22.243Z,8.73
2023-05-17T19:19:26.363Z,8.88
2023-05-17T19:22:29.809Z,8.83
2023-05-17T19:25:32.830Z,8.73
2023-05-17T19:28:36.472Z,8.73
2023-05-17T19:31:39.470Z,8.61
2023-05-17T19:34:42.625Z,8.84
2023-05-17T19:37:45.554Z,8.81
2023-05-17T19:40:48.757Z,8.86
2023-05-17T19:43:52.072Z,8.86
2023-05-17T19:46:55.166Z,8.80
2023-05-17T19:49:58.199Z,8.91
2023-05-17T19:53:01.985Z,8.85
2023-05-17T19:56:08.644Z,8.86
2023-05-17T19:59:11.627Z,8.96
2023-05-17T20:02:14.588Z,8.98
2023-05-17T20:05:17.810Z,8.93
2023-05-17T20:08:21.555Z,8.86
2023-05-17T20:11:24.660Z,8.94
2023-05-17T20:14:28.048Z,8.99
2023-05-17T20:17:31.061Z,9.06
2023-05-17T20:20:34.163Z,9.04
2023-05-17T20:23:36.972Z,9.02
2023-05-17T20:26:40.091Z,9.02
2023-05-17T20:29:42.865Z,9.01
2023-05-17T20:32:45.976Z,8.94
2023-05-17T20:35:48.725Z,8.94
2023-05-17T20:38:51.862Z,8.99
2023-05-17T20:41:55.802Z,8.98
2023-05-17T20:45:06.541Z,8.97
2023-05-17T20:48:09.678Z,8.92
2023-05-17T20:51:13.092Z,8.93
2023-05-17T20:54:16.184Z,9.03
2023-05-17T20:57:19.828Z,9.00
2023-05-17T21:00:22.855Z,8.98
2023-05-17T21:03:28.387Z,8.92
2023-05-17T21:06:32.827Z,9.08
2023-05-17T21:09:35.848Z,9.10
2023-05-17T21:12:39.083Z,9.18
2023-05-17T21:15:42.418Z,9.13
2023-05-17T21:18:45.490Z,9.04
2023-05-17T21:21:48.513Z,9.13
2023-05-17T21:24:52.935Z,9.08
2023-05-17T21:27:56.007Z,9.16
2023-05-17T21:30:59.124Z,9.05
2023-05-17T21:34:02.109Z,9.18
2023-05-17T21:37:05.274Z,9.14
2023-05-17T21:40:09.459Z,9.27
2023-05-17T21:43:12.897Z,9.23
2023-05-17T21:46:16.002Z,9.25
2023-05-17T21:49:18.935Z,9.27
2023-05-17T21:52:21.944Z,9.31
2023-05-17T21:55:24.908Z,9.31
2023-05-17T21:58:28.051Z,9.36
2023-05-17T22:01:31.222Z,9.44
2023-05-17T22:04:34.163Z,9.41
2023-05-17T22:07:37.363Z,9.41
2023-05-17T22:10:40.865Z,9.39
2023-05-17T22:13:43.579Z,9.48
2023-05-17T22:16:47.394Z,9.40
2023-05-17T22:19:50.550Z,9.44
2023-05-17T22:22:53.522Z,9.45
2023-05-17T22:25:57.884Z,9.47
2023-05-17T22:29:00.821Z,9.45
2023-05-17T22:32:03.824Z,9.49
2023-05-17T22:35:07.075Z,9.50
2023-05-17T22:38:09.922Z,9.52
2023-05-17T22:41:13.581Z,9.52
2023-05-17T22:44:16.840Z,9.52
2023-05-17T22:47:23.263Z,9.49
2023-05-17T22:50:31.088Z,9.41
2023-05-17T22:53:33.970Z,9.42
2023-05-17T22:56:37.951Z,9.35
2023-05-17T22:59:44.297Z,9.38
2023-05-17T23:02:47.248Z,9.36
2023-05-17T23:05:51.971Z,9.44
2023-05-17T23:08:55.317Z,9.40
2023-05-17T23:12:00.689Z,9.31
2023-05-17T23:15:08.468Z,9.38
2023-05-17T23:18:12.156Z,9.34
2023-05-17T23:21:14.965Z,9.42
2023-05-17T23:24:18.001Z,9.45
2023-05-17T23:27:22.532Z,9.55
2023-05-17T23:30:25.428Z,9.42
2023-05-17T23:33:31.669Z,9.40
2023-05-17T23:36:34.541Z,9.52
2023-05-17T23:39:37.782Z,9.52
2023-05-17T23:42:41.942Z,9.55
2023-05-17T23:45:44.974Z,9.44
2023-05-17T23:48:50.748Z,9.41
2023-05-17T23:51:53.822Z,9.40
2023-05-17T23:54:59.873Z,9.42
2023-05-17T23:58:02.775Z,9.47
